Time;durP1;ratioP1;P1;durP2;ratioP2;P2;SDS_P1;SDS_P2;PMS_P1;PMS_P2;Temp;Humidity;BMP_temperature;BMP_pressure;BME280_temperature;BME280_humidity;BME280_pressure;Samples;Min_cycle;Max_cycle;Signal;HPM_P1;HPM_P2
2022/11/11 00:02:35;;;;;;;;;13.25;12.50;;;;;11.75;78.37;102665.13;5036141;28;10079;-65
2022/11/11 00:05:20;;;;;;;;;13.75;13.00;;;;;11.78;78.46;102672.88;5039326;28;10078;-65
2022/11/11 00:08:06;;;;;;;;;15.50;12.75;;;;;11.79;78.22;102677.31;5029698;28;10027;-66
2022/11/11 00:10:51;;;;;;;;;12.50;11.50;;;;;11.69;78.52;102676.53;5033679;28;9995;-66
2022/11/11 00:13:37;;;;;;;;;13.25;12.00;;;;;11.72;78.51;102675.38;5044847;28;10059;-66
2022/11/11 00:16:22;;;;;;;;;14.25;14.25;;;;;11.58;78.77;102682.16;5045095;28;9915;-66
2022/11/11 00:25:25;;;;;;;;;19.50;16.75;;;;;11.37;79.73;102674.41;5042050;28;10150;-65
2022/11/11 00:28:10;;;;;;;;;17.50;17.50;;;;;11.26;79.87;102670.13;5041796;28;10190;-66
2022/11/11 00:31:09;;;;;;;;;28.00;23.00;;;;;11.23;80.29;102669.56;5022398;28;10233;-66
2022/11/11 00:33:54;;;;;;;;;21.50;18.00;;;;;11.25;80.15;102675.63;5044357;28;10378;-66
2022/11/11 00:36:39;;;;;;;;;21.25;17.00;;;;;11.24;80.17;102666.72;5029391;28;10207;-66
2022/11/11 00:39:28;;;;;;;;;21.50;18.50;;;;;11.31;80.01;102669.66;5035496;28;10152;-66
2022/11/11 00:42:13;;;;;;;;;24.25;18.00;;;;;11.30;79.53;102660.72;5035041;28;10420;-66
2022/11/11 00:44:58;;;;;;;;;21.25;16.75;;;;;11.27;79.81;102657.47;5032948;28;10313;-66
2022/11/11 00:50:59;;;;;;;;;26.75;22.25;;;;;11.15;80.27;102646.06;5032767;28;10465;-66
2022/11/11 00:53:44;;;;;;;;;24.25;22.50;;;;;11.20;79.98;102659.09;5052214;28;11119;-65
2022/11/11 00:56:30;;;;;;;;;26.25;26.25;;;;;11.07;80.19;102652.22;5030302;28;10405;-64
2022/11/11 00:59:15;;;;;;;;;26.50;24.50;;;;;11.05;80.53;102656.06;5048816;28;10629;-66
2022/11/11 01:02:00;;;;;;;;;23.25;22.00;;;;;11.05;80.84;102659.59;5038737;28;10385;-66
2022/11/11 01:04:45;;;;;;;;;26.00;21.50;;;;;11.06;80.24;102660.44;5034830;28;10298;-65
2022/11/11 01:07:30;;;;;;;;;21.50;21.25;;;;;11.02;80.34;102661.75;5044089;28;10446;-65
2022/11/11 01:10:36;;;;;;;;;24.00;24.00;;;;;11.01;80.06;102668.16;5036671;28;10366;-64
2022/11/11 01:13:23;;;;;;;;;26.00;23.25;;;;;11.04;80.47;102674.09;5041394;28;10465;-66
2022/11/11 01:16:20;;;;;;;;;33.75;28.00;;;;;11.02;80.30;102675.22;5031642;28;10645;-65
2022/11/11 01:19:06;;;;;;;;;19.50;18.00;;;;;11.01;80.48;102685.16;5045800;28;10640;-66
2022/11/11 01:21:50;;;;;;;;;38.50;31.75;;;;;10.98;80.26;102693.56;5035935;28;10281;-64
2022/11/11 01:24:37;;;;;;;;;33.00;26.75;;;;;10.95;80.61;102693.88;5044060;28;10857;-66
2022/11/11 01:27:22;;;;;;;;;21.25;20.75;;;;;10.99;80.68;102695.25;5041988;28;10532;-66
2022/11/11 01:30:07;;;;;;;;;23.00;23.00;;;;;11.03;80.39;102690.41;5035871;28;10310;-66
2022/11/11 01:32:53;;;;;;;;;26.00;24.50;;;;;10.98;80.23;102692.69;5043344;28;10659;-66
2022/11/11 01:35:40;;;;;;;;;31.00;28.25;;;;;10.88;80.52;102692.78;5037682;28;11434;-65
2022/11/11 01:38:25;;;;;;;;;28.75;25.25;;;;;10.92;80.62;102687.94;5010752;28;11629;-66
2022/11/11 01:41:32;;;;;;;;;31.75;27.25;;;;;10.99;80.58;102683.63;5036155;28;10604;-66
2022/11/11 01:44:45;;;;;;;;;39.25;34.25;;;;;11.00;80.62;102677.25;5021723;28;10699;-66
2022/11/11 01:49:17;;;;;;;;;28.75;24.50;;;;;10.96;80.39;102678.53;5035742;28;10700;-66
2022/11/11 01:50:57;;;;;;;;;35.50;31.50;;;;;10.97;80.54;102683.78;5034836;28;10617;-66
2022/11/11 01:53:43;;;;;;;;;34.75;32.50;;;;;10.98;80.32;102671.13;5028070;28;10538;-66
2022/11/11 01:56:29;;;;;;;;;37.00;31.25;;;;;11.00;80.46;102666.47;5029716;28;10756;-66
2022/11/11 01:59:16;;;;;;;;;27.00;24.00;;;;;11.02;80.10;102667.13;5036978;28;10688;-66
2022/11/11 02:02:09;;;;;;;;;28.50;26.75;;;;;10.99;79.91;102662.09;5030731;28;10611;-66
2022/11/11 02:08:02;;;;;;;;;35.25;30.75;;;;;10.88;80.13;102658.59;5048071;28;10861;-65
2022/11/11 02:10:47;;;;;;;;;36.50;32.50;;;;;10.88;80.62;102657.75;5029037;28;10766;-66
2022/11/11 02:16:41;;;;;;;;;30.25;28.50;;;;;10.81;80.66;102649.41;5023535;28;10640;-64
2022/11/11 02:19:53;;;;;;;;;36.75;34.00;;;;;10.75;80.73;102647.34;5041792;28;10532;-66
2022/11/11 02:22:49;;;;;;;;;38.75;32.25;;;;;10.69;81.61;102653.31;5041444;28;10790;-66
2022/11/11 02:25:38;;;;;;;;;36.50;26.00;;;;;10.68;81.66;102653.47;5042201;28;11686;-66
2022/11/11 02:28:26;;;;;;;;;25.50;23.25;;;;;10.69;81.48;102649.78;5049721;28;10622;-65
2022/11/11 02:31:12;;;;;;;;;36.25;30.50;;;;;10.72;80.99;102653.03;5042227;28;10691;-65
2022/11/11 02:33:57;;;;;;;;;36.50;31.75;;;;;10.69;81.88;102660.56;5026496;28;10611;-65
2022/11/11 02:36:43;;;;;;;;;38.00;34.25;;;;;10.70;81.37;102656.88;5026796;28;10769;-66
2022/11/11 02:39:30;;;;;;;;;39.25;35.50;;;;;10.69;81.47;102663.25;5038995;28;10622;-66
2022/11/11 02:42:35;;;;;;;;;38.50;34.75;;;;;10.74;81.45;102669.91;5039418;28;10569;-66
2022/11/11 02:45:20;;;;;;;;;34.25;29.50;;;;;10.74;81.01;102669.91;5029577;28;10721;-66
2022/11/11 02:48:05;;;;;;;;;36.25;30.00;;;;;10.73;80.86;102678.94;5040545;28;10651;-65
2022/11/11 02:50:50;;;;;;;;;31.25;30.25;;;;;10.62;81.08;102682.72;5016926;28;10530;-66
2022/11/11 02:53:35;;;;;;;;;29.75;27.75;;;;;10.62;81.62;102676.47;5032758;28;10700;-66
2022/11/11 02:57:06;;;;;;;;;37.50;35.25;;;;;10.63;81.45;102692.47;5033076;28;10805;-66
2022/11/11 02:59:25;;;;;;;;;38.75;31.50;;;;;10.69;81.51;102692.88;5037665;28;10869;-66
2022/11/11 03:02:10;;;;;;;;;30.50;29.75;;;;;10.72;81.57;102703.34;5033745;28;10700;-66
2022/11/11 03:04:57;;;;;;;;;42.25;37.00;;;;;10.66;81.37;102702.13;5025406;28;10727;-65
2022/11/11 03:07:42;;;;;;;;;32.00;29.00;;;;;10.64;81.43;102713.03;5043931;28;10972;-66
2022/11/11 03:10:28;;;;;;;;;41.50;35.50;;;;;10.66;81.82;102706.66;5035272;28;10817;-66
2022/11/11 03:13:13;;;;;;;;;38.75;35.50;;;;;10.70;81.45;102716.13;5021743;28;10725;-66
2022/11/11 03:15:58;;;;;;;;;40.50;34.25;;;;;10.66;81.64;102718.28;5031624;28;10938;-66
2022/11/11 03:18:43;;;;;;;;;39.75;36.25;;;;;10.68;81.63;102727.03;5034910;28;10781;-65
2022/11/11 03:21:28;;;;;;;;;34.25;33.25;;;;;10.63;81.53;102721.25;5027371;28;10984;-65
2022/11/11 03:27:37;;;;;;;;;37.25;33.50;;;;;10.75;81.55;102728.16;5042173;28;10791;-66
2022/11/11 03:30:22;;;;;;;;;26.50;21.75;;;;;10.78;81.52;102727.84;5036235;28;10704;-66
2022/11/11 03:33:08;;;;;;;;;30.75;26.25;;;;;10.83;81.05;102717.47;5039639;28;10539;-66
2022/11/11 03:35:53;;;;;;;;;36.50;34.75;;;;;10.76;81.64;102720.91;5040946;28;11324;-65
2022/11/11 03:38:38;;;;;;;;;36.00;34.50;;;;;10.82;81.21;102715.78;5036071;28;10532;-66
2022/11/11 03:41:23;;;;;;;;;33.50;27.50;;;;;10.75;80.96;102717.38;5036052;28;10829;-66
2022/11/11 03:44:07;;;;;;;;;39.00;36.50;;;;;10.68;81.07;102718.97;5036094;28;10696;-66
2022/11/11 03:46:56;;;;;;;;;35.25;34.00;;;;;10.64;81.39;102718.41;5038172;28;11595;-66
2022/11/11 03:49:44;;;;;;;;;37.50;35.50;;;;;10.68;81.56;102721.66;5033311;28;10781;-66
2022/11/11 03:52:29;;;;;;;;;33.25;29.75;;;;;10.74;81.31;102717.53;5044391;28;10913;-66
2022/11/11 03:55:15;;;;;;;;;38.75;32.50;;;;;10.64;81.47;102722.94;5030068;28;10714;-64
2022/11/11 03:58:00;;;;;;;;;35.75;28.50;;;;;10.73;81.41;102710.44;5033794;28;10949;-66
2022/11/11 04:00:44;;;;;;;;;39.75;34.75;;;;;10.71;81.38;102718.66;5043968;28;10777;-66
2022/11/11 04:21:53;;;;;;;;;35.00;32.00;;;;;10.62;81.33;102676.47;5031553;28;10778;-66
2022/11/11 04:27:41;;;;;;;;;40.00;35.00;;;;;10.48;81.63;102667.03;5032644;28;10775;-65
2022/11/11 04:30:26;;;;;;;;;48.25;40.00;;;;;10.47;82.10;102672.59;5037421;28;10848;-66
2022/11/11 04:33:11;;;;;;;;;40.75;34.50;;;;;10.53;81.75;102671.97;5052736;28;10874;-66
2022/11/11 04:35:56;;;;;;;;;32.75;31.75;;;;;10.63;81.50;102688.94;5040555;28;10894;-67
2022/11/11 04:41:45;;;;;;;;;29.50;28.00;;;;;10.68;81.41;102681.25;5034088;28;11493;-65
2022/11/11 04:48:11;;;;;;;;;41.25;35.75;;;;;10.61;81.81;102688.22;5033807;28;10930;-66
2022/11/11 04:50:56;;;;;;;;;36.50;31.75;;;;;10.65;81.55;102686.94;5041359;28;11667;-67
2022/11/11 04:53:41;;;;;;;;;44.50;36.75;;;;;10.63;81.58;102683.56;5023281;28;10813;-65
2022/11/11 04:59:30;;;;;;;;;36.50;32.25;;;;;10.63;81.55;102702.41;5043706;28;11377;-67
2022/11/11 05:05:19;;;;;;;;;34.75;33.25;;;;;10.53;81.65;102702.47;5038462;28;10624;-68
2022/11/11 05:11:08;;;;;;;;;37.75;35.75;;;;;10.61;81.73;102707.06;5032092;28;10630;-64
2022/11/11 05:23:06;;;;;;;;;36.75;33.75;;;;;10.61;81.11;102690.91;5030424;28;10793;-65
2022/11/11 05:25:51;;;;;;;;;36.75;31.75;;;;;10.60;81.34;102691.94;5032471;28;10614;-65
2022/11/11 05:28:36;;;;;;;;;44.50;36.50;;;;;10.56;81.31;102694.06;5042328;28;10672;-64
2022/11/11 05:31:21;;;;;;;;;33.25;29.00;;;;;10.49;82.15;102694.81;5027515;28;10785;-65
2022/11/11 05:34:06;;;;;;;;;39.75;32.25;;;;;10.55;82.20;102699.63;5039520;28;10617;-64
2022/11/11 05:36:51;;;;;;;;;40.50;32.75;;;;;10.55;82.18;102703.16;5035086;28;11513;-65
2022/11/11 05:39:36;;;;;;;;;34.50;32.50;;;;;10.59;81.83;102704.53;5028902;28;11483;-64
2022/11/11 05:42:20;;;;;;;;;33.75;32.75;;;;;10.53;81.61;102704.28;5022136;28;10632;-64
2022/11/11 05:45:06;;;;;;;;;37.25;36.00;;;;;10.57;81.84;102701.16;5030159;28;10538;-64
2022/11/11 05:47:51;;;;;;;;;33.00;30.75;;;;;10.58;81.48;102707.41;5031353;28;10637;-65
2022/11/11 05:50:40;;;;;;;;;33.25;26.50;;;;;10.65;81.38;102713.88;5030695;28;10577;-65
2022/11/11 05:53:25;;;;;;;;;37.00;30.75;;;;;10.60;81.11;102714.31;5035025;28;10485;-65
2022/11/11 05:56:10;;;;;;;;;37.00;34.25;;;;;10.54;81.77;102716.78;5037580;28;11305;-65
2022/11/11 05:58:55;;;;;;;;;36.25;32.50;;;;;10.54;81.44;102717.63;5028089;28;10579;-65
2022/11/11 06:01:40;;;;;;;;;42.00;38.00;;;;;10.46;81.63;102722.03;5038453;28;10490;-65
2022/11/11 06:04:25;;;;;;;;;36.00;26.50;;;;;10.59;81.83;102715.31;5040014;28;10722;-65
2022/11/11 06:07:10;;;;;;;;;27.75;22.75;;;;;10.71;81.47;102725.91;5037348;28;10513;-66
2022/11/11 06:10:29;;;;;;;;;39.75;32.50;;;;;10.68;81.41;102736.97;5032408;28;10231;-65
2022/11/11 06:13:09;;;;;;;;;26.00;25.75;;;;;10.65;80.94;102730.03;5048213;28;10551;-65
2022/11/11 06:15:56;;;;;;;;;40.00;35.50;;;;;10.59;81.02;102722.56;5007911;28;10675;-65
2022/11/11 06:18:41;;;;;;;;;37.75;31.25;;;;;10.59;81.43;102725.25;5029288;28;10632;-65
2022/11/11 06:21:26;;;;;;;;;33.00;29.00;;;;;10.64;81.37;102734.56;5040108;28;10553;-65
2022/11/11 06:24:11;;;;;;;;;35.25;25.50;;;;;10.68;81.11;102743.19;5034983;28;10411;-65
2022/11/11 06:26:56;;;;;;;;;32.50;29.75;;;;;10.57;81.04;102743.38;5035525;28;10603;-65
2022/11/11 06:29:41;;;;;;;;;29.75;27.75;;;;;10.67;81.26;102737.97;5015383;28;10737;-65
2022/11/11 06:32:27;;;;;;;;;32.25;32.00;;;;;10.67;80.68;102754.97;5038232;28;10556;-66
2022/11/11 06:35:12;;;;;;;;;47.00;37.50;;;;;10.53;81.11;102758.13;5031363;28;10657;-65
2022/11/11 06:37:57;;;;;;;;;40.50;35.50;;;;;10.47;81.41;102751.50;5041541;28;11487;-65
2022/11/11 06:40:43;;;;;;;;;38.00;28.50;;;;;10.51;81.33;102757.44;5024595;28;10640;-65
2022/11/11 06:43:28;;;;;;;;;37.75;31.25;;;;;10.51;81.42;102750.22;5031929;28;10462;-65
2022/11/11 06:46:20;;;;;;;;;42.75;33.50;;;;;10.51;81.17;102755.59;5028982;28;10799;-65
2022/11/11 06:49:06;;;;;;;;;39.50;36.00;;;;;10.45;81.53;102766.97;5042552;28;10646;-66
2022/11/11 06:51:51;;;;;;;;;33.25;28.25;;;;;10.54;81.49;102766.09;5036295;28;10951;-66
2022/11/11 06:54:36;;;;;;;;;42.50;34.75;;;;;10.59;81.37;102768.34;5038897;28;10636;-66
2022/11/11 06:57:23;;;;;;;;;40.75;29.25;;;;;10.56;80.96;102769.47;5034733;28;10983;-66
2022/11/11 07:00:09;;;;;;;;;36.50;30.75;;;;;10.56;80.84;102766.78;5038585;28;10766;-66
2022/11/11 07:02:55;;;;;;;;;37.00;31.00;;;;;10.59;80.80;102762.94;5028042;28;10550;-66
2022/11/11 07:05:41;;;;;;;;;31.75;28.50;;;;;10.61;80.78;102755.56;5034583;28;10678;-66
2022/11/11 07:08:26;;;;;;;;;34.00;30.25;;;;;10.64;80.74;102758.81;5041994;28;10537;-66
2022/11/11 07:11:13;;;;;;;;;35.00;31.50;;;;;10.62;81.03;102755.44;5032858;28;10719;-66
2022/11/11 07:14:03;;;;;;;;;35.25;29.75;;;;;10.52;80.70;102762.69;5017758;28;10646;-66
2022/11/11 07:16:48;;;;;;;;;39.75;38.00;;;;;10.47;81.13;102754.19;5016456;28;11355;-66
2022/11/11 07:19:33;;;;;;;;;39.75;27.25;;;;;10.46;81.05;102759.75;5044670;28;11449;-66
2022/11/11 07:22:18;;;;;;;;;36.50;31.50;;;;;10.42;81.00;102747.56;5011121;28;10468;-66
2022/11/11 07:25:04;;;;;;;;;33.75;31.75;;;;;10.39;81.51;102760.31;5027537;28;10620;-66
2022/11/11 07:27:49;;;;;;;;;33.50;29.75;;;;;10.43;81.26;102762.72;5029345;28;10829;-66
2022/11/11 07:30:41;;;;;;;;;36.00;33.50;;;;;10.46;81.14;102767.81;5024850;28;10530;-65
2022/11/11 07:33:26;;;;;;;;;32.50;32.00;;;;;10.45;81.60;102749.94;5041355;28;10708;-65
2022/11/11 07:36:11;;;;;;;;;40.25;31.75;;;;;10.46;80.59;102768.66;5029262;28;10651;-65
2022/11/11 07:38:56;;;;;;;;;37.50;29.75;;;;;10.32;81.30;102772.66;5041341;28;10710;-66
2022/11/11 07:41:41;;;;;;;;;37.00;32.50;;;;;10.24;81.76;102775.19;5013660;28;10616;-65
2022/11/11 07:44:26;;;;;;;;;36.25;30.25;;;;;10.34;81.76;102780.59;5038350;28;10878;-65
2022/11/11 07:47:10;;;;;;;;;40.00;32.75;;;;;10.27;81.74;102780.31;5035712;28;10740;-66
2022/11/11 07:49:55;;;;;;;;;28.25;28.25;;;;;10.32;81.70;102788.81;5028590;28;10894;-66
2022/11/11 07:52:47;;;;;;;;;35.50;34.50;;;;;10.43;81.51;102805.78;5031039;28;10651;-65
2022/11/11 07:55:32;;;;;;;;;42.25;32.50;;;;;10.30;80.93;102806.09;5033252;28;10762;-66
2022/11/11 07:58:17;;;;;;;;;38.25;35.75;;;;;10.22;81.85;102814.88;5035487;28;10708;-66
2022/11/11 08:01:02;;;;;;;;;46.75;35.50;;;;;10.19;82.11;102812.47;5024745;28;10881;-66
2022/11/11 08:03:52;;;;;;;;;40.75;32.50;;;;;10.30;81.82;102806.09;5008622;28;10652;-66
2022/11/11 08:06:37;;;;;;;;;48.25;33.75;;;;;10.16;81.50;102815.41;5026655;28;10765;-65
2022/11/11 08:09:22;;;;;;;;;34.25;29.75;;;;;10.15;82.15;102813.72;5026455;28;11556;-65
2022/11/11 08:15:11;;;;;;;;;37.50;34.00;;;;;10.32;81.45;102826.47;5029869;28;10867;-66
2022/11/11 08:17:56;;;;;;;;;40.75;35.25;;;;;10.33;81.64;102824.63;5032884;28;10718;-66
2022/11/11 08:20:41;;;;;;;;;32.75;30.75;;;;;10.33;81.52;102825.53;5032593;28;10709;-65
2022/11/11 08:23:31;;;;;;;;;31.25;29.75;;;;;10.31;80.83;102838.25;5031453;28;10618;-66
2022/11/11 08:26:36;;;;;;;;;37.75;35.75;;;;;10.26;81.25;102837.84;5029912;28;10699;-65
2022/11/11 08:29:22;;;;;;;;;41.50;37.50;;;;;10.24;81.40;102836.25;5031858;28;10781;-66
2022/11/11 08:32:06;;;;;;;;;48.25;36.00;;;;;10.19;81.65;102830.44;5029364;28;10856;-66
2022/11/11 08:34:51;;;;;;;;;39.75;35.25;;;;;10.15;81.54;102840.66;5032127;28;10879;-65
2022/11/11 08:37:36;;;;;;;;;32.75;31.50;;;;;10.24;81.32;102837.09;5032781;28;10770;-64
2022/11/11 08:40:21;;;;;;;;;45.25;41.25;;;;;10.34;81.26;102837.13;5031957;28;10794;-65
2022/11/11 08:43:06;;;;;;;;;43.75;38.25;;;;;10.28;81.29;102838.53;5029863;28;10895;-64
2022/11/11 08:45:52;;;;;;;;;36.00;31.75;;;;;10.26;81.22;102848.59;5023356;28;11095;-65
2022/11/11 08:48:37;;;;;;;;;38.25;36.00;;;;;10.25;80.89;102855.00;5032151;28;10951;-67
2022/11/11 08:51:22;;;;;;;;;35.00;31.75;;;;;10.25;81.56;102846.03;5032062;28;11044;-65
2022/11/11 08:54:07;;;;;;;;;41.75;36.25;;;;;10.33;81.20;102860.50;5032233;28;10788;-65
2022/11/11 08:56:52;;;;;;;;;37.50;33.00;;;;;10.37;80.93;102861.94;5032067;28;10790;-67
2022/11/11 08:59:37;;;;;;;;;34.00;28.50;;;;;10.44;81.29;102869.41;5020699;28;11000;-65
2022/11/11 09:02:22;;;;;;;;;36.25;28.00;;;;;10.43;80.77;102876.66;5023435;28;10617;-65
2022/11/11 09:05:07;;;;;;;;;32.75;27.75;;;;;10.52;80.75;102877.63;5017876;28;10460;-65
2022/11/11 09:07:52;;;;;;;;;39.75;33.75;;;;;10.47;80.57;102874.50;5028970;28;10458;-66
2022/11/11 09:10:37;;;;;;;;;30.25;25.75;;;;;10.45;80.63;102879.19;5031584;28;11374;-64
2022/11/11 09:13:22;;;;;;;;;40.50;34.50;;;;;10.44;80.84;102888.25;5026177;28;10606;-65
2022/11/11 09:16:08;;;;;;;;;31.50;28.00;;;;;10.41;80.50;102889.38;5025198;28;10638;-64
2022/11/11 09:18:53;;;;;;;;;39.25;33.00;;;;;10.37;80.85;102893.34;5028914;28;10704;-65
2022/11/11 09:21:38;;;;;;;;;34.25;28.25;;;;;10.36;80.92;102903.28;5030039;28;10640;-64
2022/11/11 09:24:23;;;;;;;;;29.25;26.75;;;;;10.38;81.00;102905.84;5031212;28;10731;-64
2022/11/11 09:27:09;;;;;;;;;32.25;29.50;;;;;10.40;80.78;102899.31;5017960;28;11298;-65
2022/11/11 09:29:54;;;;;;;;;32.75;30.25;;;;;10.42;80.73;102903.72;5031009;28;10487;-65
2022/11/11 09:32:39;;;;;;;;;32.25;31.00;;;;;10.41;80.78;102902.84;5031595;28;10625;-65
2022/11/11 09:35:24;;;;;;;;;31.00;28.00;;;;;10.49;81.05;102905.69;5031697;28;10724;-65
2022/11/11 09:38:09;;;;;;;;;34.00;30.25;;;;;10.44;80.98;102915.19;5031502;28;11220;-65
2022/11/11 09:40:59;;;;;;;;;39.00;27.25;;;;;10.37;81.48;102915.78;5022729;28;10663;-65
2022/11/11 09:43:56;;;;;;;;;25.00;22.25;;;;;10.49;81.28;102913.78;5011707;28;10539;-64
2022/11/11 09:46:50;;;;;;;;;32.00;24.75;;;;;10.47;80.81;102921.13;5028938;28;10500;-65
2022/11/11 09:49:57;;;;;;;;;31.50;26.25;;;;;10.52;81.16;102923.41;5030842;28;10518;-65
2022/11/11 09:52:53;;;;;;;;;35.50;25.00;;;;;10.66;81.06;102928.34;5015946;28;10470;-65
2022/11/11 09:55:44;;;;;;;;;30.50;27.50;;;;;10.68;80.63;102923.66;5030259;28;10463;-65
2022/11/11 09:58:42;;;;;;;;;24.25;22.00;;;;;10.73;79.93;102924.06;5030862;28;10503;-65
2022/11/11 10:01:36;;;;;;;;;27.50;26.25;;;;;10.69;80.29;102924.50;5030611;28;10393;-64
2022/11/11 10:05:02;;;;;;;;;34.75;31.75;;;;;10.52;80.40;102926.09;5030863;28;10515;-65
2022/11/11 10:08:03;;;;;;;;;23.75;23.75;;;;;10.61;80.67;102922.53;4984820;28;10747;-64
2022/11/11 10:10:51;;;;;;;;;26.75;23.00;;;;;10.64;80.58;102941.09;5030092;28;10401;-64
2022/11/11 10:13:37;;;;;;;;;31.75;23.00;;;;;10.71;80.51;102934.16;5030846;28;11122;-65
2022/11/11 10:16:47;;;;;;;;;36.75;28.25;;;;;10.75;80.33;102937.41;5030585;28;10318;-65
2022/11/11 10:19:38;;;;;;;;;28.25;26.75;;;;;10.71;80.51;102936.84;5030427;28;10488;-65
2022/11/11 10:22:33;;;;;;;;;30.50;23.25;;;;;10.75;80.55;102946.34;5024590;28;10456;-65
2022/11/11 10:25:21;;;;;;;;;21.50;21.25;;;;;10.75;80.33;102946.34;5030646;28;10410;-65
2022/11/11 10:28:15;;;;;;;;;24.00;20.75;;;;;10.77;80.27;102940.81;5029776;28;10457;-65
2022/11/11 10:31:03;;;;;;;;;26.50;22.75;;;;;10.81;80.25;102945.75;5030421;28;10385;-65
2022/11/11 10:34:13;;;;;;;;;21.75;20.00;;;;;10.79;80.41;102947.75;5030309;28;10335;-65
2022/11/11 10:36:59;;;;;;;;;25.25;22.00;;;;;10.72;80.47;102943.94;5022103;28;10423;-65
2022/11/11 10:40:06;;;;;;;;;27.50;22.75;;;;;10.73;80.13;102937.53;5011733;28;10361;-65
2022/11/11 10:42:51;;;;;;;;;23.00;19.50;;;;;10.71;80.52;102934.16;5029847;28;10422;-65
2022/11/11 10:45:57;;;;;;;;;32.75;24.50;;;;;10.60;80.79;102932.47;5027034;28;10610;-65
2022/11/11 10:48:45;;;;;;;;;22.50;21.00;;;;;10.68;80.38;102933.59;5030048;28;10443;-65
2022/11/11 10:51:37;;;;;;;;;30.75;24.75;;;;;10.68;80.89;102938.97;5029725;28;10218;-65
2022/11/11 10:54:35;;;;;;;;;19.75;19.25;;;;;10.80;80.54;102935.97;5027923;28;10293;-65
2022/11/11 10:57:37;;;;;;;;;29.00;21.75;;;;;10.79;80.46;102936.13;5018478;28;10348;-65
2022/11/11 11:00:23;;;;;;;;;22.00;20.00;;;;;10.79;80.24;102931.59;5022665;28;10221;-65
2022/11/11 11:03:32;;;;;;;;;24.50;23.50;;;;;10.81;79.83;102929.59;5029880;28;10327;-65
2022/11/11 11:06:23;;;;;;;;;21.25;16.25;;;;;10.81;79.92;102934.13;5030233;28;10384;-65
2022/11/11 11:09:40;;;;;;;;;30.25;23.25;;;;;10.79;79.94;102928.06;5029718;28;10226;-65
2022/11/11 11:12:33;;;;;;;;;22.00;19.75;;;;;10.78;80.02;102939.84;5023382;28;11394;-65
2022/11/11 11:15:23;;;;;;;;;22.75;21.25;;;;;10.84;80.16;102934.69;5029886;28;10301;-65
2022/11/11 11:18:14;;;;;;;;;20.25;15.00;;;;;10.94;80.02;102929.31;5029858;28;10938;-66
2022/11/11 11:21:04;;;;;;;;;25.75;20.00;;;;;10.97;79.67;102925.44;5014879;28;10231;-65
2022/11/11 11:23:49;;;;;;;;;24.00;22.25;;;;;10.97;79.31;102923.59;5029645;28;10321;-64
2022/11/11 11:26:46;;;;;;;;;24.50;21.50;;;;;10.95;79.68;102924.75;5005266;28;10373;-65
2022/11/11 11:29:34;;;;;;;;;19.00;15.00;;;;;10.98;79.58;102925.31;5009995;28;10339;-65
2022/11/11 11:32:30;;;;;;;;;23.75;22.75;;;;;11.00;79.60;102930.56;5009869;28;10138;-65
2022/11/11 11:35:39;;;;;;;;;23.50;22.00;;;;;10.97;79.36;102928.16;5014258;28;10325;-65
2022/11/11 11:38:45;;;;;;;;;18.25;17.50;;;;;11.03;79.36;102935.66;5029143;28;10242;-65
2022/11/11 11:41:49;;;;;;;;;21.75;19.50;;;;;11.05;79.18;102925.56;5025933;28;10250;-64
2022/11/11 11:44:36;;;;;;;;;23.00;22.00;;;;;11.01;79.32;102919.63;5029588;28;10452;-65
2022/11/11 11:47:42;;;;;;;;;26.75;23.75;;;;;11.02;79.47;102932.13;5012034;28;10374;-65
2022/11/11 11:50:50;;;;;;;;;25.50;19.75;;;;;11.08;79.53;102930.69;5023406;28;10238;-65
2022/11/11 11:53:56;;;;;;;;;19.00;16.75;;;;;11.09;79.40;102927.81;5033353;28;10221;-65
2022/11/11 11:56:45;;;;;;;;;25.25;22.00;;;;;11.16;79.45;102941.56;5030320;28;10143;-64
2022/11/11 12:00:00;;;;;;;;;21.50;20.00;;;;;11.13;79.13;102937.31;5016351;28;10367;-64
2022/11/11 12:03:07;;;;;;;;;25.00;22.25;;;;;11.17;78.93;102937.88;5015802;28;10064;-64
2022/11/11 12:06:02;;;;;;;;;21.50;20.25;;;;;11.06;79.34;102930.84;5023964;28;10458;-64
2022/11/11 12:09:06;;;;;;;;;22.75;20.00;;;;;11.07;79.33;102939.75;5014773;28;10252;-64
2022/11/11 12:12:01;;;;;;;;;25.25;20.00;;;;;11.04;79.16;102930.13;5035474;28;10300;-64
2022/11/11 12:15:02;;;;;;;;;24.00;19.25;;;;;11.12;78.83;102932.94;5046168;28;10277;-66
2022/11/11 12:18:09;;;;;;;;;17.75;15.25;;;;;11.18;78.89;102931.50;5032955;28;10262;-65
2022/11/11 12:21:10;;;;;;;;;20.25;18.25;;;;;11.11;78.75;102917.75;5031788;28;10205;-65
2022/11/11 12:24:07;;;;;;;;;21.50;20.50;;;;;11.06;78.76;102924.56;5032494;28;10145;-64
2022/11/11 12:27:08;;;;;;;;;19.50;18.00;;;;;11.11;78.84;102925.00;5032313;28;11068;-65
2022/11/11 12:30:13;;;;;;;;;22.50;19.00;;;;;11.13;78.48;102912.22;5032099;28;10259;-64
2022/11/11 12:33:16;;;;;;;;;17.00;14.50;;;;;11.20;78.96;102917.88;5029348;28;10832;-65
2022/11/11 12:36:08;;;;;;;;;22.50;22.25;;;;;11.25;78.80;102912.88;5036175;28;10071;-65
2022/11/11 12:38:58;;;;;;;;;25.25;23.25;;;;;11.19;78.58;102917.03;5052090;28;10232;-65
2022/11/11 12:41:54;;;;;;;;;24.50;19.75;;;;;11.25;78.74;102921.81;5034111;28;10145;-65
2022/11/11 12:44:56;;;;;;;;;29.50;27.00;;;;;11.08;78.95;102925.28;5032928;28;10152;-65
2022/11/11 12:48:02;;;;;;;;;22.25;22.25;;;;;11.08;79.11;102923.44;5032871;28;10392;-65
2022/11/11 12:51:06;;;;;;;;;34.25;26.75;;;;;11.13;78.96;102928.38;5025744;28;10236;-65
2022/11/11 12:54:16;;;;;;;;;27.25;22.75;;;;;11.11;78.88;102922.31;5032319;28;10399;-65
2022/11/11 12:57:23;;;;;;;;;16.25;16.25;;;;;11.11;79.08;102931.22;5025668;28;10237;-65
2022/11/11 13:00:16;;;;;;;;;21.50;20.50;;;;;11.11;79.12;102925.84;5031336;28;10254;-65
2022/11/11 13:03:21;;;;;;;;;24.25;21.25;;;;;11.20;78.94;102924.09;5010814;28;10475;-66
2022/11/11 13:06:26;;;;;;;;;16.00;16.00;;;;;11.29;78.98;102923.22;5025042;28;10333;-66
2022/11/11 13:09:26;;;;;;;;;22.75;20.25;;;;;11.38;78.61;102919.66;5032070;28;10065;-66
2022/11/11 13:12:42;;;;;;;;;17.00;17.00;;;;;11.43;78.51;102926.44;5012202;28;10133;-65
2022/11/11 13:15:27;;;;;;;;;18.00;17.00;;;;;11.48;78.50;102926.84;5019405;28;10053;-65
2022/11/11 13:18:19;;;;;;;;;22.50;19.25;;;;;11.59;78.53;102926.66;5015979;28;10124;-65
2022/11/11 13:21:09;;;;;;;;;25.00;25.00;;;;;11.64;78.08;102902.75;5008633;28;10167;-65
2022/11/11 13:23:53;;;;;;;;;24.00;21.00;;;;;11.58;77.73;102917.69;5032105;28;10826;-65
2022/11/11 13:26:58;;;;;;;;;21.75;19.00;;;;;11.57;78.32;102915.16;5031617;28;10213;-65
2022/11/11 13:30:27;;;;;;;;;19.50;13.75;;;;;11.58;77.89;102916.84;5031426;28;10232;-64
2022/11/11 13:33:21;;;;;;;;;22.25;21.00;;;;;11.62;77.67;102920.94;5031311;28;10164;-65
2022/11/11 13:36:13;;;;;;;;;18.00;17.75;;;;;11.66;77.51;102922.31;5030151;28;10154;-65
2022/11/11 13:39:03;;;;;;;;;22.25;18.00;;;;;11.74;77.55;102925.13;5031054;28;10854;-65
2022/11/11 13:41:52;;;;;;;;;16.00;15.75;;;;;11.80;77.52;102926.38;5031211;28;10158;-65
2022/11/11 13:44:49;;;;;;;;;25.00;21.00;;;;;11.80;77.20;102915.59;5030302;28;9983;-65
2022/11/11 13:47:42;;;;;;;;;20.75;19.00;;;;;11.83;77.10;102921.56;5031564;28;10097;-64
2022/11/11 13:50:30;;;;;;;;;20.50;20.25;;;;;11.82;76.89;102916.28;5030989;28;10004;-66
2022/11/11 13:53:30;;;;;;;;;28.25;24.25;;;;;11.81;77.17;102920.81;5036943;28;10145;-65
2022/11/11 13:56:26;;;;;;;;;26.00;24.50;;;;;11.83;77.25;102924.28;5036702;28;10219;-64
2022/11/11 13:59:21;;;;;;;;;28.00;24.50;;;;;11.76;77.54;102914.19;5020548;28;10197;-66
2022/11/11 14:02:25;;;;;;;;;21.00;19.75;;;;;11.78;77.47;102913.03;5030678;28;10931;-65
2022/11/11 14:05:10;;;;;;;;;22.00;21.00;;;;;11.85;77.34;102922.25;5029053;28;10081;-65